sensor_id;sensor_type;location;lat;lon;timestamp;temperature;humidity
60701;DHT22;46541;49.894;10.886;2023-03-01T00:01:15;1.20;99.90
60701;DHT22;46541;49.894;10.886;2023-03-01T00:03:42;1.20;99.90
60701;DHT22;46541;49.894;10.886;2023-03-01T00:06:10;1.20;99.90
60701;DHT22;46541;49.894;10.886;2023-03-01T00:08:37;1.20;99.90
60701;DHT22;46541;49.894;10.886;2023-03-01T00:11:14;1.20;99.90
60701;DHT22;46541;49.894;10.886;2023-03-01T00:13:42;1.20;99.90
60701;DHT22;46541;49.894;10.886;2023-03-01T00:16:12;1.20;99.90
60701;DHT22;46541;49.894;10.886;2023-03-01T00:18:39;1.20;99.90
60701;DHT22;46541;49.894;10.886;2023-03-01T00:21:06;1.10;99.90
60701;DHT22;46541;49.894;10.886;2023-03-01T00:23:37;1.20;99.90
60701;DHT22;46541;49.894;10.886;2023-03-01T00:26:08;1.20;99.90
60701;DHT22;46541;49.894;10.886;2023-03-01T00:28:35;1.20;99.90
60701;DHT22;46541;49.894;10.886;2023-03-01T00:31:07;1.20;99.90
60701;DHT22;46541;49.894;10.886;2023-03-01T00:33:35;1.20;99.90
60701;DHT22;46541;49.894;10.886;2023-03-01T00:36:02;1.10;99.90
60701;DHT22;46541;49.894;10.886;2023-03-01T00:38:30;1.20;99.90
60701;DHT22;46541;49.894;10.886;2023-03-01T00:41:03;1.20;99.90
60701;DHT22;46541;49.894;10.886;2023-03-01T00:43:31;1.10;99.90
60701;DHT22;46541;49.894;10.886;2023-03-01T00:46:03;1.20;99.90
60701;DHT22;46541;49.894;10.886;2023-03-01T00:48:30;1.10;99.90
60701;DHT22;46541;49.894;10.886;2023-03-01T00:50:57;1.10;99.90
60701;DHT22;46541;49.894;10.886;2023-03-01T00:53:30;1.10;99.90
60701;DHT22;46541;49.894;10.886;2023-03-01T00:55:57;1.10;99.90
60701;DHT22;46541;49.894;10.886;2023-03-01T00:58:25;1.00;99.90
60701;DHT22;46541;49.894;10.886;2023-03-01T01:00:52;1.00;99.90
60701;DHT22;46541;49.894;10.886;2023-03-01T01:03:19;1.00;99.90
60701;DHT22;46541;49.894;10.886;2023-03-01T01:05:46;0.90;99.90
60701;DHT22;46541;49.894;10.886;2023-03-01T01:08:13;0.90;99.90
60701;DHT22;46541;49.894;10.886;2023-03-01T01:10:39;0.90;99.90
60701;DHT22;46541;49.894;10.886;2023-03-01T01:13:06;0.80;99.90
60701;DHT22;46541;49.894;10.886;2023-03-01T01:15:34;0.80;99.90
60701;DHT22;46541;49.894;10.886;2023-03-01T01:18:01;0.80;99.90
60701;DHT22;46541;49.894;10.886;2023-03-01T01:20:28;0.90;99.90
60701;DHT22;46541;49.894;10.886;2023-03-01T01:22:55;0.90;99.90
60701;DHT22;46541;49.894;10.886;2023-03-01T01:25:22;0.90;99.90
60701;DHT22;46541;49.894;10.886;2023-03-01T01:27:51;0.90;99.90
60701;DHT22;46541;49.894;10.886;2023-03-01T01:30:18;0.80;99.90
60701;DHT22;46541;49.894;10.886;2023-03-01T01:32:45;0.80;99.90
60701;DHT22;46541;49.894;10.886;2023-03-01T01:35:11;0.90;99.90
60701;DHT22;46541;49.894;10.886;2023-03-01T01:37:38;0.90;99.90
60701;DHT22;46541;49.894;10.886;2023-03-01T01:40:05;0.90;99.90
60701;DHT22;46541;49.894;10.886;2023-03-01T01:42:32;0.80;99.90
60701;DHT22;46541;49.894;10.886;2023-03-01T01:45:31;0.80;99.90
60701;DHT22;46541;49.894;10.886;2023-03-01T01:48:04;0.80;99.90
60701;DHT22;46541;49.894;10.886;2023-03-01T01:50:33;0.80;99.90
60701;DHT22;46541;49.894;10.886;2023-03-01T01:53:09;0.80;99.90
60701;DHT22;46541;49.894;10.886;2023-03-01T01:55:41;0.80;99.90
60701;DHT22;46541;49.894;10.886;2023-03-01T01:58:11;0.80;99.90
60701;DHT22;46541;49.894;10.886;2023-03-01T02:00:40;0.80;99.90
60701;DHT22;46541;49.894;10.886;2023-03-01T02:03:13;0.80;99.90
60701;DHT22;46541;49.894;10.886;2023-03-01T02:05:54;0.80;99.90
60701;DHT22;46541;49.894;10.886;2023-03-01T02:08:23;0.80;99.90
60701;DHT22;46541;49.894;10.886;2023-03-01T02:10:51;0.70;99.90
60701;DHT22;46541;49.894;10.886;2023-03-01T02:13:19;0.70;99.90
60701;DHT22;46541;49.894;10.886;2023-03-01T02:15:46;0.70;99.90
60701;DHT22;46541;49.894;10.886;2023-03-01T02:18:16;0.80;99.90
60701;DHT22;46541;49.894;10.886;2023-03-01T02:23:25;0.70;99.90
60701;DHT22;46541;49.894;10.886;2023-03-01T02:28:56;0.70;99.90
60701;DHT22;46541;49.894;10.886;2023-03-01T02:31:23;0.70;99.90
60701;DHT22;46541;49.894;10.886;2023-03-01T02:34:17;0.70;99.90
60701;DHT22;46541;49.894;10.886;2023-03-01T02:36:50;0.70;99.90
60701;DHT22;46541;49.894;10.886;2023-03-01T02:39:24;0.70;99.90
60701;DHT22;46541;49.894;10.886;2023-03-01T02:41:53;0.70;99.90
60701;DHT22;46541;49.894;10.886;2023-03-01T02:44:20;0.70;99.90
60701;DHT22;46541;49.894;10.886;2023-03-01T02:46:50;0.70;99.90
60701;DHT22;46541;49.894;10.886;2023-03-01T02:49:27;0.70;99.90
60701;DHT22;46541;49.894;10.886;2023-03-01T02:57:32;0.60;99.90
60701;DHT22;46541;49.894;10.886;2023-03-01T03:00:03;0.60;99.90
60701;DHT22;46541;49.894;10.886;2023-03-01T03:02:35;0.50;99.90
60701;DHT22;46541;49.894;10.886;2023-03-01T03:05:17;0.50;99.90
60701;DHT22;46541;49.894;10.886;2023-03-01T03:07:45;0.50;99.90
60701;DHT22;46541;49.894;10.886;2023-03-01T03:10:16;0.60;99.90
60701;DHT22;46541;49.894;10.886;2023-03-01T03:12:43;0.60;99.90
60701;DHT22;46541;49.894;10.886;2023-03-01T03:15:10;0.60;99.90
60701;DHT22;46541;49.894;10.886;2023-03-01T03:17:40;0.60;99.90
60701;DHT22;46541;49.894;10.886;2023-03-01T03:20:11;0.60;99.90
60701;DHT22;46541;49.894;10.886;2023-03-01T03:22:39;0.60;99.90
60701;DHT22;46541;49.894;10.886;2023-03-01T03:25:07;0.60;99.90
60701;DHT22;46541;49.894;10.886;2023-03-01T03:27:38;0.50;99.90
60701;DHT22;46541;49.894;10.886;2023-03-01T03:30:08;0.50;99.90
60701;DHT22;46541;49.894;10.886;2023-03-01T03:32:39;0.60;99.90
60701;DHT22;46541;49.894;10.886;2023-03-01T03:35:08;0.50;99.90
60701;DHT22;46541;49.894;10.886;2023-03-01T03:37:39;0.60;99.90
60701;DHT22;46541;49.894;10.886;2023-03-01T03:40:26;0.60;99.90
60701;DHT22;46541;49.894;10.886;2023-03-01T03:42:53;0.60;99.90
60701;DHT22;46541;49.894;10.886;2023-03-01T03:45:19;0.60;99.90
60701;DHT22;46541;49.894;10.886;2023-03-01T03:47:46;0.50;99.90
60701;DHT22;46541;49.894;10.886;2023-03-01T03:50:15;0.50;99.90
60701;DHT22;46541;49.894;10.886;2023-03-01T03:52:42;0.50;99.90
60701;DHT22;46541;49.894;10.886;2023-03-01T03:55:11;0.50;99.90
60701;DHT22;46541;49.894;10.886;2023-03-01T03:57:40;0.50;99.90
60701;DHT22;46541;49.894;10.886;2023-03-01T04:00:10;0.40;99.90
60701;DHT22;46541;49.894;10.886;2023-03-01T04:02:40;0.50;99.90
60701;DHT22;46541;49.894;10.886;2023-03-01T04:05:08;0.50;99.90
60701;DHT22;46541;49.894;10.886;2023-03-01T04:07:36;0.40;99.90
60701;DHT22;46541;49.894;10.886;2023-03-01T04:10:09;0.40;99.90
60701;DHT22;46541;49.894;10.886;2023-03-01T04:12:36;0.40;99.90
60701;DHT22;46541;49.894;10.886;2023-03-01T04:15:04;0.40;99.90
60701;DHT22;46541;49.894;10.886;2023-03-01T04:17:44;0.30;99.90
60701;DHT22;46541;49.894;10.886;2023-03-01T04:20:17;0.30;99.90
60701;DHT22;46541;49.894;10.886;2023-03-01T04:22:44;0.30;99.90
60701;DHT22;46541;49.894;10.886;2023-03-01T04:25:13;0.30;99.90
60701;DHT22;46541;49.894;10.886;2023-03-01T04:27:41;0.30;99.90
60701;DHT22;46541;49.894;10.886;2023-03-01T04:30:08;0.30;99.90
60701;DHT22;46541;49.894;10.886;2023-03-01T04:32:35;0.30;99.90
60701;DHT22;46541;49.894;10.886;2023-03-01T04:35:02;0.20;99.90
60701;DHT22;46541;49.894;10.886;2023-03-01T04:37:29;0.20;99.90
60701;DHT22;46541;49.894;10.886;2023-03-01T04:39:56;0.20;99.90
60701;DHT22;46541;49.894;10.886;2023-03-01T04:42:22;0.30;99.90
60701;DHT22;46541;49.894;10.886;2023-03-01T04:44:49;0.30;99.90
60701;DHT22;46541;49.894;10.886;2023-03-01T04:47:17;0.20;99.90
60701;DHT22;46541;49.894;10.886;2023-03-01T04:49:44;0.20;99.90
60701;DHT22;46541;49.894;10.886;2023-03-01T04:52:11;0.20;99.90
60701;DHT22;46541;49.894;10.886;2023-03-01T04:54:37;0.20;99.90
60701;DHT22;46541;49.894;10.886;2023-03-01T04:57:04;0.20;99.90
60701;DHT22;46541;49.894;10.886;2023-03-01T04:59:31;0.20;99.90
60701;DHT22;46541;49.894;10.886;2023-03-01T05:01:58;0.20;99.90
60701;DHT22;46541;49.894;10.886;2023-03-01T05:04:26;0.20;99.90
60701;DHT22;46541;49.894;10.886;2023-03-01T05:06:53;0.10;99.90
60701;DHT22;46541;49.894;10.886;2023-03-01T05:09:20;0.20;99.90
60701;DHT22;46541;49.894;10.886;2023-03-01T05:11:47;0.20;99.90
60701;DHT22;46541;49.894;10.886;2023-03-01T05:14:13;0.10;99.90
60701;DHT22;46541;49.894;10.886;2023-03-01T05:16:40;0.10;99.90
60701;DHT22;46541;49.894;10.886;2023-03-01T05:19:07;0.10;99.90
60701;DHT22;46541;49.894;10.886;2023-03-01T05:21:45;0.10;99.90
60701;DHT22;46541;49.894;10.886;2023-03-01T05:24:34;0.10;99.90
60701;DHT22;46541;49.894;10.886;2023-03-01T05:27:02;0.00;99.90
60701;DHT22;46541;49.894;10.886;2023-03-01T05:29:30;0.10;99.90
60701;DHT22;46541;49.894;10.886;2023-03-01T05:31:58;0.10;99.90
60701;DHT22;46541;49.894;10.886;2023-03-01T05:34:33;0.10;99.90
60701;DHT22;46541;49.894;10.886;2023-03-01T05:37:01;0.10;99.90
60701;DHT22;46541;49.894;10.886;2023-03-01T05:39:29;0.10;99.90
60701;DHT22;46541;49.894;10.886;2023-03-01T05:41:58;0.00;99.90
60701;DHT22;46541;49.894;10.886;2023-03-01T05:44:27;0.00;99.90
60701;DHT22;46541;49.894;10.886;2023-03-01T05:46:54;0.00;99.90
60701;DHT22;46541;49.894;10.886;2023-03-01T05:49:21;0.00;99.90
60701;DHT22;46541;49.894;10.886;2023-03-01T05:51:52;0.00;99.90
60701;DHT22;46541;49.894;10.886;2023-03-01T05:54:20;0.00;99.90
60701;DHT22;46541;49.894;10.886;2023-03-01T05:56:48;0.00;99.90
60701;DHT22;46541;49.894;10.886;2023-03-01T05:59:15;0.00;99.90
60701;DHT22;46541;49.894;10.886;2023-03-01T06:01:42;0.00;99.90
60701;DHT22;46541;49.894;10.886;2023-03-01T06:04:09;0.10;99.90
60701;DHT22;46541;49.894;10.886;2023-03-01T06:06:37;0.00;99.90
60701;DHT22;46541;49.894;10.886;2023-03-01T06:09:07;0.10;99.90
60701;DHT22;46541;49.894;10.886;2023-03-01T06:11:36;0.10;99.90
60701;DHT22;46541;49.894;10.886;2023-03-01T06:14:03;0.00;99.90
60701;DHT22;46541;49.894;10.886;2023-03-01T06:16:30;0.00;99.90
60701;DHT22;46541;49.894;10.886;2023-03-01T06:18:58;0.00;99.90
60701;DHT22;46541;49.894;10.886;2023-03-01T06:21:24;0.00;99.90
60701;DHT22;46541;49.894;10.886;2023-03-01T06:23:51;0.00;99.90
60701;DHT22;46541;49.894;10.886;2023-03-01T06:26:18;0.00;99.90
60701;DHT22;46541;49.894;10.886;2023-03-01T06:28:45;0.00;99.90
60701;DHT22;46541;49.894;10.886;2023-03-01T06:31:13;0.10;99.90
60701;DHT22;46541;49.894;10.886;2023-03-01T06:33:39;0.10;99.90
60701;DHT22;46541;49.894;10.886;2023-03-01T06:36:07;0.10;99.90
60701;DHT22;46541;49.894;10.886;2023-03-01T06:38:34;0.10;99.90
60701;DHT22;46541;49.894;10.886;2023-03-01T06:41:01;0.10;99.90
60701;DHT22;46541;49.894;10.886;2023-03-01T06:43:28;0.10;99.90
60701;DHT22;46541;49.894;10.886;2023-03-01T06:45:55;0.10;99.90
60701;DHT22;46541;49.894;10.886;2023-03-01T06:48:22;0.20;99.90
60701;DHT22;46541;49.894;10.886;2023-03-01T06:50:49;0.20;99.90
60701;DHT22;46541;49.894;10.886;2023-03-01T06:53:16;0.20;99.90
60701;DHT22;46541;49.894;10.886;2023-03-01T06:55:42;0.20;99.90
60701;DHT22;46541;49.894;10.886;2023-03-01T06:58:09;0.20;99.90
60701;DHT22;46541;49.894;10.886;2023-03-01T07:00:36;0.20;99.90
60701;DHT22;46541;49.894;10.886;2023-03-01T07:03:03;0.20;99.90
60701;DHT22;46541;49.894;10.886;2023-03-01T07:05:30;0.30;99.90
60701;DHT22;46541;49.894;10.886;2023-03-01T07:07:57;0.30;99.90
60701;DHT22;46541;49.894;10.886;2023-03-01T07:10:24;0.40;99.90
60701;DHT22;46541;49.894;10.886;2023-03-01T07:12:54;0.40;99.90
60701;DHT22;46541;49.894;10.886;2023-03-01T07:15:21;0.40;99.90
60701;DHT22;46541;49.894;10.886;2023-03-01T07:17:48;0.40;99.90
60701;DHT22;46541;49.894;10.886;2023-03-01T07:20:18;0.50;99.90
60701;DHT22;46541;49.894;10.886;2023-03-01T07:22:45;0.50;99.90
60701;DHT22;46541;49.894;10.886;2023-03-01T07:25:11;0.60;99.90
60701;DHT22;46541;49.894;10.886;2023-03-01T07:27:38;0.60;99.90
60701;DHT22;46541;49.894;10.886;2023-03-01T07:30:05;0.60;99.90
60701;DHT22;46541;49.894;10.886;2023-03-01T07:32:32;0.80;99.90
60701;DHT22;46541;49.894;10.886;2023-03-01T07:34:59;0.80;99.90
60701;DHT22;46541;49.894;10.886;2023-03-01T07:37:26;0.90;99.90
60701;DHT22;46541;49.894;10.886;2023-03-01T07:39:52;0.90;99.90
60701;DHT22;46541;49.894;10.886;2023-03-01T07:42:19;1.00;99.90
60701;DHT22;46541;49.894;10.886;2023-03-01T07:44:46;1.10;99.90
60701;DHT22;46541;49.894;10.886;2023-03-01T07:47:12;1.10;99.90
60701;DHT22;46541;49.894;10.886;2023-03-01T07:49:39;1.10;99.90
60701;DHT22;46541;49.894;10.886;2023-03-01T07:52:06;1.20;99.90
60701;DHT22;46541;49.894;10.886;2023-03-01T07:54:32;1.20;99.90
60701;DHT22;46541;49.894;10.886;2023-03-01T07:56:59;1.30;99.90
60701;DHT22;46541;49.894;10.886;2023-03-01T07:59:26;1.40;99.90
60701;DHT22;46541;49.894;10.886;2023-03-01T08:01:56;1.40;99.90
60701;DHT22;46541;49.894;10.886;2023-03-01T08:04:23;1.50;99.90
60701;DHT22;46541;49.894;10.886;2023-03-01T08:06:53;1.50;99.90
60701;DHT22;46541;49.894;10.886;2023-03-01T08:09:21;1.60;99.90
60701;DHT22;46541;49.894;10.886;2023-03-01T08:11:48;1.70;99.90
60701;DHT22;46541;49.894;10.886;2023-03-01T08:14:15;1.80;99.90
60701;DHT22;46541;49.894;10.886;2023-03-01T08:16:42;1.90;99.90
60701;DHT22;46541;49.894;10.886;2023-03-01T08:19:10;1.90;99.90
60701;DHT22;46541;49.894;10.886;2023-03-01T08:21:38;2.00;99.90
60701;DHT22;46541;49.894;10.886;2023-03-01T08:24:06;2.10;99.90
60701;DHT22;46541;49.894;10.886;2023-03-01T08:26:34;2.10;99.90
60701;DHT22;46541;49.894;10.886;2023-03-01T08:29:01;2.20;99.90
60701;DHT22;46541;49.894;10.886;2023-03-01T08:31:30;2.30;99.90
60701;DHT22;46541;49.894;10.886;2023-03-01T08:33:59;2.40;99.90
60701;DHT22;46541;49.894;10.886;2023-03-01T08:36:28;2.40;99.90
60701;DHT22;46541;49.894;10.886;2023-03-01T08:38:56;2.50;99.90
60701;DHT22;46541;49.894;10.886;2023-03-01T08:41:24;2.60;99.90
60701;DHT22;46541;49.894;10.886;2023-03-01T08:43:51;2.60;99.90
60701;DHT22;46541;49.894;10.886;2023-03-01T08:46:18;2.70;99.90
60701;DHT22;46541;49.894;10.886;2023-03-01T08:48:45;2.80;99.90
60701;DHT22;46541;49.894;10.886;2023-03-01T08:51:14;2.90;99.90
60701;DHT22;46541;49.894;10.886;2023-03-01T08:53:43;3.00;99.90
60701;DHT22;46541;49.894;10.886;2023-03-01T08:56:10;3.10;99.90
60701;DHT22;46541;49.894;10.886;2023-03-01T08:58:38;3.20;99.90
60701;DHT22;46541;49.894;10.886;2023-03-01T09:01:10;3.30;99.90
60701;DHT22;46541;49.894;10.886;2023-03-01T09:03:37;3.40;99.90
60701;DHT22;46541;49.894;10.886;2023-03-01T09:06:05;3.40;99.90
60701;DHT22;46541;49.894;10.886;2023-03-01T09:08:41;3.50;99.90
60701;DHT22;46541;49.894;10.886;2023-03-01T09:11:09;3.60;99.90
60701;DHT22;46541;49.894;10.886;2023-03-01T09:13:36;3.70;99.90
60701;DHT22;46541;49.894;10.886;2023-03-01T09:16:05;3.70;99.90
60701;DHT22;46541;49.894;10.886;2023-03-01T09:18:32;3.80;99.90
60701;DHT22;46541;49.894;10.886;2023-03-01T09:21:21;4.00;99.90
60701;DHT22;46541;49.894;10.886;2023-03-01T09:24:05;4.10;99.90
60701;DHT22;46541;49.894;10.886;2023-03-01T09:26:32;4.20;99.90
60701;DHT22;46541;49.894;10.886;2023-03-01T09:28:59;4.30;99.90
60701;DHT22;46541;49.894;10.886;2023-03-01T09:31:25;4.40;99.90
60701;DHT22;46541;49.894;10.886;2023-03-01T09:33:53;4.40;99.90
60701;DHT22;46541;49.894;10.886;2023-03-01T09:36:23;4.40;99.90
60701;DHT22;46541;49.894;10.886;2023-03-01T09:38:51;4.60;99.90
60701;DHT22;46541;49.894;10.886;2023-03-01T09:46:51;4.90;99.90
60701;DHT22;46541;49.894;10.886;2023-03-01T09:49:21;4.90;99.90
60701;DHT22;46541;49.894;10.886;2023-03-01T09:51:59;5.00;99.90
60701;DHT22;46541;49.894;10.886;2023-03-01T09:54:26;5.20;99.30
60701;DHT22;46541;49.894;10.886;2023-03-01T09:57:05;5.30;98.70
60701;DHT22;46541;49.894;10.886;2023-03-01T10:02:23;5.50;98.00
60701;DHT22;46541;49.894;10.886;2023-03-01T10:05:19;5.60;97.20
60701;DHT22;46541;49.894;10.886;2023-03-01T10:10:43;6.30;96.30
60701;DHT22;46541;49.894;10.886;2023-03-01T10:13:21;6.70;94.30
60701;DHT22;46541;49.894;10.886;2023-03-01T10:16:18;7.30;93.60
60701;DHT22;46541;49.894;10.886;2023-03-01T10:18:53;8.00;90.70
60701;DHT22;46541;49.894;10.886;2023-03-01T10:21:22;8.30;86.00
60701;DHT22;46541;49.894;10.886;2023-03-01T10:23:51;8.80;80.80
60701;DHT22;46541;49.894;10.886;2023-03-01T10:29:11;9.70;73.60
60701;DHT22;46541;49.894;10.886;2023-03-01T10:31:41;9.80;73.00
60701;DHT22;46541;49.894;10.886;2023-03-01T10:34:12;9.80;71.30
60701;DHT22;46541;49.894;10.886;2023-03-01T10:36:40;9.20;71.50
60701;DHT22;46541;49.894;10.886;2023-03-01T10:39:18;8.60;73.60
60701;DHT22;46541;49.894;10.886;2023-03-01T10:42:31;8.30;74.00
60701;DHT22;46541;49.894;10.886;2023-03-01T10:45:37;8.20;75.60
60701;DHT22;46541;49.894;10.886;2023-03-01T10:50:34;7.70;76.80
60701;DHT22;46541;49.894;10.886;2023-03-01T10:53:04;7.80;76.00
60701;DHT22;46541;49.894;10.886;2023-03-01T10:58:15;8.10;77.40
60701;DHT22;46541;49.894;10.886;2023-03-01T11:00:52;7.90;75.20
60701;DHT22;46541;49.894;10.886;2023-03-01T11:03:23;7.90;75.40
60701;DHT22;46541;49.894;10.886;2023-03-01T11:06:33;8.00;77.10
60701;DHT22;46541;49.894;10.886;2023-03-01T11:08:52;8.00;77.30
60701;DHT22;46541;49.894;10.886;2023-03-01T11:11:33;8.10;77.40
60701;DHT22;46541;49.894;10.886;2023-03-01T11:14:14;8.20;76.70
60701;DHT22;46541;49.894;10.886;2023-03-01T11:17:13;8.30;76.20
60701;DHT22;46541;49.894;10.886;2023-03-01T11:19:42;8.40;77.50
60701;DHT22;46541;49.894;10.886;2023-03-01T11:22:20;8.50;77.10
60701;DHT22;46541;49.894;10.886;2023-03-01T11:24:50;8.50;75.50
60701;DHT22;46541;49.894;10.886;2023-03-01T11:27:38;8.60;77.00
60701;DHT22;46541;49.894;10.886;2023-03-01T11:30:07;8.50;75.10
60701;DHT22;46541;49.894;10.886;2023-03-01T11:33:04;8.60;74.20
60701;DHT22;46541;49.894;10.886;2023-03-01T11:35:29;8.50;75.30
60701;DHT22;46541;49.894;10.886;2023-03-01T11:46:39;8.60;75.70
60701;DHT22;46541;49.894;10.886;2023-03-01T11:52:34;8.70;74.50
60701;DHT22;46541;49.894;10.886;2023-03-01T11:55:16;8.60;74.50
60701;DHT22;46541;49.894;10.886;2023-03-01T12:06:50;8.80;74.90
60701;DHT22;46541;49.894;10.886;2023-03-01T12:12:32;8.70;73.70
60701;DHT22;46541;49.894;10.886;2023-03-01T12:29:08;8.70;74.60
60701;DHT22;46541;49.894;10.886;2023-03-01T12:40:27;8.70;74.80
60701;DHT22;46541;49.894;10.886;2023-03-01T12:50:48;8.70;75.70
60701;DHT22;46541;49.894;10.886;2023-03-01T12:53:46;8.60;74.80
60701;DHT22;46541;49.894;10.886;2023-03-01T12:56:15;8.50;75.70
60701;DHT22;46541;49.894;10.886;2023-03-01T13:02:12;8.70;76.50
60701;DHT22;46541;49.894;10.886;2023-03-01T13:15:37;8.60;75.70
60701;DHT22;46541;49.894;10.886;2023-03-01T13:33:51;8.60;77.70
60701;DHT22;46541;49.894;10.886;2023-03-01T13:44:35;8.60;77.70
60701;DHT22;46541;49.894;10.886;2023-03-01T13:52:55;8.50;78.40
60701;DHT22;46541;49.894;10.886;2023-03-01T13:55:38;8.50;78.10
60701;DHT22;46541;49.894;10.886;2023-03-01T13:58:24;8.60;77.90
60701;DHT22;46541;49.894;10.886;2023-03-01T14:01:03;8.50;77.80
60701;DHT22;46541;49.894;10.886;2023-03-01T14:03:32;8.50;78.10
60701;DHT22;46541;49.894;10.886;2023-03-01T14:06:09;8.50;77.00
60701;DHT22;46541;49.894;10.886;2023-03-01T14:08:44;8.50;77.50
60701;DHT22;46541;49.894;10.886;2023-03-01T14:19:18;8.40;78.70
60701;DHT22;46541;49.894;10.886;2023-03-01T14:22:22;8.40;79.30
60701;DHT22;46541;49.894;10.886;2023-03-01T14:24:58;8.40;79.60
60701;DHT22;46541;49.894;10.886;2023-03-01T14:27:32;8.30;79.80
60701;DHT22;46541;49.894;10.886;2023-03-01T14:30:02;8.40;80.70
60701;DHT22;46541;49.894;10.886;2023-03-01T14:32:31;8.30;80.10
60701;DHT22;46541;49.894;10.886;2023-03-01T14:34:59;8.40;80.70
60701;DHT22;46541;49.894;10.886;2023-03-01T14:37:27;8.40;80.20
60701;DHT22;46541;49.894;10.886;2023-03-01T14:39:56;8.30;80.80
60701;DHT22;46541;49.894;10.886;2023-03-01T14:42:25;8.30;81.10
60701;DHT22;46541;49.894;10.886;2023-03-01T14:44:55;8.30;81.30
60701;DHT22;46541;49.894;10.886;2023-03-01T14:47:27;8.20;81.80
60701;DHT22;46541;49.894;10.886;2023-03-01T14:50:01;8.20;82.30
60701;DHT22;46541;49.894;10.886;2023-03-01T14:52:42;8.20;82.50
60701;DHT22;46541;49.894;10.886;2023-03-01T14:55:32;8.20;82.20
60701;DHT22;46541;49.894;10.886;2023-03-01T14:57:59;8.10;82.70
60701;DHT22;46541;49.894;10.886;2023-03-01T15:00:30;8.10;82.30
60701;DHT22;46541;49.894;10.886;2023-03-01T15:03:01;8.10;83.20
60701;DHT22;46541;49.894;10.886;2023-03-01T15:05:32;8.10;84.10
60701;DHT22;46541;49.894;10.886;2023-03-01T15:08:01;8.10;83.80
60701;DHT22;46541;49.894;10.886;2023-03-01T15:10:31;8.10;84.90
60701;DHT22;46541;49.894;10.886;2023-03-01T15:13:21;8.10;84.60
60701;DHT22;46541;49.894;10.886;2023-03-01T15:15:49;8.10;85.20
60701;DHT22;46541;49.894;10.886;2023-03-01T15:18:20;8.00;84.80
60701;DHT22;46541;49.894;10.886;2023-03-01T15:20:48;8.00;84.10
60701;DHT22;46541;49.894;10.886;2023-03-01T15:23:29;8.00;84.30
60701;DHT22;46541;49.894;10.886;2023-03-01T15:25:57;8.00;84.00
60701;DHT22;46541;49.894;10.886;2023-03-01T15:28:27;7.90;84.90
60701;DHT22;46541;49.894;10.886;2023-03-01T15:31:42;7.90;85.20
60701;DHT22;46541;49.894;10.886;2023-03-01T15:33:44;7.90;84.90
60701;DHT22;46541;49.894;10.886;2023-03-01T15:36:43;7.90;84.70
60701;DHT22;46541;49.894;10.886;2023-03-01T15:39:34;7.90;85.40
60701;DHT22;46541;49.894;10.886;2023-03-01T15:42:10;7.90;86.20
60701;DHT22;46541;49.894;10.886;2023-03-01T15:44:40;7.80;85.70
60701;DHT22;46541;49.894;10.886;2023-03-01T15:47:27;7.80;86.60
60701;DHT22;46541;49.894;10.886;2023-03-01T15:49:56;7.80;87.70
60701;DHT22;46541;49.894;10.886;2023-03-01T15:52:28;7.70;87.20
60701;DHT22;46541;49.894;10.886;2023-03-01T15:55:01;7.70;87.90
60701;DHT22;46541;49.894;10.886;2023-03-01T15:57:28;7.60;88.90
60701;DHT22;46541;49.894;10.886;2023-03-01T15:59:55;7.50;89.30
60701;DHT22;46541;49.894;10.886;2023-03-01T16:02:23;7.50;90.20
60701;DHT22;46541;49.894;10.886;2023-03-01T16:04:51;7.50;90.10
60701;DHT22;46541;49.894;10.886;2023-03-01T16:07:17;7.40;90.80
60701;DHT22;46541;49.894;10.886;2023-03-01T16:09:44;7.30;90.50
60701;DHT22;46541;49.894;10.886;2023-03-01T16:12:15;7.30;90.50
60701;DHT22;46541;49.894;10.886;2023-03-01T16:14:43;7.30;91.10
60701;DHT22;46541;49.894;10.886;2023-03-01T16:17:09;7.20;91.50
60701;DHT22;46541;49.894;10.886;2023-03-01T16:19:39;7.10;92.00
60701;DHT22;46541;49.894;10.886;2023-03-01T16:22:10;7.10;92.40
60701;DHT22;46541;49.894;10.886;2023-03-01T16:24:37;7.10;92.60
60701;DHT22;46541;49.894;10.886;2023-03-01T16:27:03;7.10;92.90
60701;DHT22;46541;49.894;10.886;2023-03-01T16:29:30;7.00;93.40
60701;DHT22;46541;49.894;10.886;2023-03-01T16:32:00;7.00;93.80
60701;DHT22;46541;49.894;10.886;2023-03-01T16:34:27;6.90;94.70
60701;DHT22;46541;49.894;10.886;2023-03-01T16:36:54;6.90;95.50
60701;DHT22;46541;49.894;10.886;2023-03-01T16:39:21;6.80;96.50
60701;DHT22;46541;49.894;10.886;2023-03-01T16:41:47;6.70;97.00
60701;DHT22;46541;49.894;10.886;2023-03-01T16:44:14;6.70;97.80
60701;DHT22;46541;49.894;10.886;2023-03-01T16:46:42;6.60;98.90
60701;DHT22;46541;49.894;10.886;2023-03-01T16:49:09;6.60;99.30
60701;DHT22;46541;49.894;10.886;2023-03-01T16:51:36;6.50;99.80
60701;DHT22;46541;49.894;10.886;2023-03-01T16:54:03;6.40;99.90
60701;DHT22;46541;49.894;10.886;2023-03-01T16:56:31;6.40;99.90
60701;DHT22;46541;49.894;10.886;2023-03-01T16:59:00;6.30;99.90
60701;DHT22;46541;49.894;10.886;2023-03-01T17:01:31;6.30;99.90
60701;DHT22;46541;49.894;10.886;2023-03-01T17:04:04;6.20;99.90
60701;DHT22;46541;49.894;10.886;2023-03-01T17:06:31;6.20;99.90
60701;DHT22;46541;49.894;10.886;2023-03-01T17:08:59;6.10;99.90
60701;DHT22;46541;49.894;10.886;2023-03-01T17:11:25;6.10;99.90
60701;DHT22;46541;49.894;10.886;2023-03-01T17:13:52;6.00;99.90
60701;DHT22;46541;49.894;10.886;2023-03-01T17:16:20;5.90;99.90
60701;DHT22;46541;49.894;10.886;2023-03-01T17:18:48;5.90;99.90
60701;DHT22;46541;49.894;10.886;2023-03-01T17:21:15;5.80;99.90
60701;DHT22;46541;49.894;10.886;2023-03-01T17:23:44;5.80;99.90
60701;DHT22;46541;49.894;10.886;2023-03-01T17:26:11;5.80;99.90
60701;DHT22;46541;49.894;10.886;2023-03-01T17:28:39;5.80;99.90
60701;DHT22;46541;49.894;10.886;2023-03-01T17:31:06;5.80;99.90
60701;DHT22;46541;49.894;10.886;2023-03-01T17:33:33;5.70;99.90
60701;DHT22;46541;49.894;10.886;2023-03-01T17:36:00;5.70;99.90
60701;DHT22;46541;49.894;10.886;2023-03-01T17:38:27;5.70;99.90
60701;DHT22;46541;49.894;10.886;2023-03-01T17:40:54;5.70;99.90
60701;DHT22;46541;49.894;10.886;2023-03-01T17:43:20;5.60;99.90
60701;DHT22;46541;49.894;10.886;2023-03-01T17:45:47;5.60;99.90
60701;DHT22;46541;49.894;10.886;2023-03-01T17:48:17;5.50;99.90
60701;DHT22;46541;49.894;10.886;2023-03-01T17:50:44;5.50;99.90
60701;DHT22;46541;49.894;10.886;2023-03-01T17:53:11;5.40;99.90
60701;DHT22;46541;49.894;10.886;2023-03-01T17:55:39;5.40;99.90
60701;DHT22;46541;49.894;10.886;2023-03-01T17:58:08;5.40;99.90
60701;DHT22;46541;49.894;10.886;2023-03-01T18:00:35;5.30;99.90
60701;DHT22;46541;49.894;10.886;2023-03-01T18:03:02;5.30;99.90
60701;DHT22;46541;49.894;10.886;2023-03-01T18:05:33;5.30;99.90
60701;DHT22;46541;49.894;10.886;2023-03-01T18:08:01;5.30;99.90